sensor_id;sensor_type;location;lat;lon;timestamp;P1;durP1;ratioP1;P2;durP2;ratioP2
61250;SDS011;47126;47.508;8.590;2023-12-28T00:01:16;13.48;;;6.25;;
61250;SDS011;47126;47.508;8.590;2023-12-28T00:03:42;12.50;;;5.90;;
61250;SDS011;47126;47.508;8.590;2023-12-28T00:06:08;12.02;;;5.40;;
61250;SDS011;47126;47.508;8.590;2023-12-28T00:08:35;13.68;;;5.30;;
61250;SDS011;47126;47.508;8.590;2023-12-28T00:11:01;15.77;;;6.25;;
61250;SDS011;47126;47.508;8.590;2023-12-28T00:13:27;12.88;;;5.80;;
61250;SDS011;47126;47.508;8.590;2023-12-28T00:15:54;12.43;;;6.10;;
61250;SDS011;47126;47.508;8.590;2023-12-28T00:18:20;10.48;;;5.28;;
61250;SDS011;47126;47.508;8.590;2023-12-28T00:20:46;13.13;;;5.78;;
61250;SDS011;47126;47.508;8.590;2023-12-28T00:23:12;12.23;;;5.57;;
61250;SDS011;47126;47.508;8.590;2023-12-28T00:25:38;10.52;;;5.05;;
61250;SDS011;47126;47.508;8.590;2023-12-28T00:28:04;9.35;;;5.05;;
61250;SDS011;47126;47.508;8.590;2023-12-28T00:30:30;10.55;;;5.28;;
61250;SDS011;47126;47.508;8.590;2023-12-28T00:32:57;11.05;;;5.68;;
61250;SDS011;47126;47.508;8.590;2023-12-28T00:35:23;10.40;;;4.97;;
61250;SDS011;47126;47.508;8.590;2023-12-28T00:37:49;10.82;;;5.15;;
61250;SDS011;47126;47.508;8.590;2023-12-28T00:40:15;11.65;;;5.57;;
61250;SDS011;47126;47.508;8.590;2023-12-28T00:42:41;10.32;;;5.28;;
61250;SDS011;47126;47.508;8.590;2023-12-28T00:45:07;11.98;;;5.55;;
61250;SDS011;47126;47.508;8.590;2023-12-28T00:47:33;10.02;;;5.55;;
61250;SDS011;47126;47.508;8.590;2023-12-28T00:49:59;11.55;;;4.75;;
61250;SDS011;47126;47.508;8.590;2023-12-28T00:52:25;11.18;;;4.72;;
61250;SDS011;47126;47.508;8.590;2023-12-28T00:54:51;9.77;;;4.53;;
61250;SDS011;47126;47.508;8.590;2023-12-28T00:57:17;9.48;;;4.72;;
61250;SDS011;47126;47.508;8.590;2023-12-28T00:59:43;9.48;;;5.18;;
61250;SDS011;47126;47.508;8.590;2023-12-28T01:02:09;10.60;;;5.53;;
61250;SDS011;47126;47.508;8.590;2023-12-28T01:04:35;9.70;;;4.88;;
61250;SDS011;47126;47.508;8.590;2023-12-28T01:07:01;10.57;;;5.60;;
61250;SDS011;47126;47.508;8.590;2023-12-28T01:09:30;11.07;;;5.15;;
61250;SDS011;47126;47.508;8.590;2023-12-28T01:11:59;11.77;;;5.50;;
61250;SDS011;47126;47.508;8.590;2023-12-28T01:14:25;9.85;;;4.60;;
61250;SDS011;47126;47.508;8.590;2023-12-28T01:16:51;14.02;;;5.53;;
61250;SDS011;47126;47.508;8.590;2023-12-28T01:19:17;11.18;;;5.65;;
61250;SDS011;47126;47.508;8.590;2023-12-28T01:21:43;14.70;;;6.20;;
61250;SDS011;47126;47.508;8.590;2023-12-28T01:24:09;11.73;;;5.22;;
61250;SDS011;47126;47.508;8.590;2023-12-28T01:26:35;10.40;;;5.63;;
61250;SDS011;47126;47.508;8.590;2023-12-28T01:29:01;12.15;;;5.90;;
61250;SDS011;47126;47.508;8.590;2023-12-28T01:31:28;11.00;;;5.57;;
61250;SDS011;47126;47.508;8.590;2023-12-28T01:33:54;14.68;;;6.38;;
61250;SDS011;47126;47.508;8.590;2023-12-28T01:36:20;16.23;;;6.90;;
61250;SDS011;47126;47.508;8.590;2023-12-28T01:38:47;14.88;;;6.45;;
61250;SDS011;47126;47.508;8.590;2023-12-28T01:41:13;16.25;;;6.72;;
61250;SDS011;47126;47.508;8.590;2023-12-28T01:43:40;15.38;;;6.68;;
61250;SDS011;47126;47.508;8.590;2023-12-28T01:46:06;15.20;;;6.68;;
61250;SDS011;47126;47.508;8.590;2023-12-28T01:48:34;20.95;;;7.25;;
61250;SDS011;47126;47.508;8.590;2023-12-28T01:51:00;19.27;;;7.30;;
61250;SDS011;47126;47.508;8.590;2023-12-28T01:53:27;16.75;;;7.13;;
61250;SDS011;47126;47.508;8.590;2023-12-28T01:55:54;13.95;;;6.57;;
61250;SDS011;47126;47.508;8.590;2023-12-28T01:58:20;13.25;;;6.10;;
61250;SDS011;47126;47.508;8.590;2023-12-28T02:00:46;13.15;;;5.55;;
61250;SDS011;47126;47.508;8.590;2023-12-28T02:03:12;12.90;;;5.80;;
61250;SDS011;47126;47.508;8.590;2023-12-28T02:05:39;11.98;;;6.07;;
61250;SDS011;47126;47.508;8.590;2023-12-28T02:08:05;10.45;;;5.22;;
61250;SDS011;47126;47.508;8.590;2023-12-28T02:10:31;12.38;;;5.68;;
61250;SDS011;47126;47.508;8.590;2023-12-28T02:12:57;12.75;;;5.80;;
61250;SDS011;47126;47.508;8.590;2023-12-28T02:15:23;11.73;;;6.35;;
61250;SDS011;47126;47.508;8.590;2023-12-28T02:17:58;13.45;;;6.35;;
61250;SDS011;47126;47.508;8.590;2023-12-28T02:20:25;12.27;;;6.63;;
61250;SDS011;47126;47.508;8.590;2023-12-28T02:22:53;12.90;;;7.50;;
61250;SDS011;47126;47.508;8.590;2023-12-28T02:25:19;15.13;;;6.20;;
61250;SDS011;47126;47.508;8.590;2023-12-28T02:27:45;13.57;;;6.03;;
61250;SDS011;47126;47.508;8.590;2023-12-28T02:30:13;13.60;;;5.72;;
61250;SDS011;47126;47.508;8.590;2023-12-28T02:32:47;11.13;;;6.03;;
61250;SDS011;47126;47.508;8.590;2023-12-28T02:35:17;11.80;;;5.45;;
61250;SDS011;47126;47.508;8.590;2023-12-28T02:37:43;11.27;;;5.30;;
61250;SDS011;47126;47.508;8.590;2023-12-28T02:40:10;11.07;;;5.55;;
61250;SDS011;47126;47.508;8.590;2023-12-28T02:42:37;11.35;;;5.65;;
61250;SDS011;47126;47.508;8.590;2023-12-28T02:45:03;12.98;;;5.32;;
61250;SDS011;47126;47.508;8.590;2023-12-28T02:47:29;12.25;;;5.68;;
61250;SDS011;47126;47.508;8.590;2023-12-28T02:49:55;11.50;;;5.60;;
61250;SDS011;47126;47.508;8.590;2023-12-28T02:52:24;11.25;;;5.90;;
61250;SDS011;47126;47.508;8.590;2023-12-28T02:54:50;10.82;;;5.90;;
61250;SDS011;47126;47.508;8.590;2023-12-28T02:57:16;12.00;;;5.43;;
61250;SDS011;47126;47.508;8.590;2023-12-28T02:59:44;13.65;;;6.10;;
61250;SDS011;47126;47.508;8.590;2023-12-28T03:02:10;9.85;;;5.18;;
61250;SDS011;47126;47.508;8.590;2023-12-28T03:04:36;13.43;;;7.00;;
61250;SDS011;47126;47.508;8.590;2023-12-28T03:07:02;12.40;;;7.00;;
61250;SDS011;47126;47.508;8.590;2023-12-28T03:09:28;15.50;;;6.78;;
61250;SDS011;47126;47.508;8.590;2023-12-28T03:11:54;11.90;;;6.28;;
61250;SDS011;47126;47.508;8.590;2023-12-28T03:14:20;14.93;;;7.32;;
61250;SDS011;47126;47.508;8.590;2023-12-28T03:16:46;14.63;;;7.72;;
61250;SDS011;47126;47.508;8.590;2023-12-28T03:19:12;13.10;;;5.80;;
61250;SDS011;47126;47.508;8.590;2023-12-28T03:21:38;13.63;;;6.38;;
61250;SDS011;47126;47.508;8.590;2023-12-28T03:24:05;12.32;;;6.25;;
61250;SDS011;47126;47.508;8.590;2023-12-28T03:26:31;10.23;;;5.38;;
61250;SDS011;47126;47.508;8.590;2023-12-28T03:28:57;9.82;;;5.35;;
61250;SDS011;47126;47.508;8.590;2023-12-28T03:31:23;15.00;;;5.53;;
61250;SDS011;47126;47.508;8.590;2023-12-28T03:33:48;11.20;;;5.22;;
61250;SDS011;47126;47.508;8.590;2023-12-28T03:36:18;10.02;;;5.22;;
61250;SDS011;47126;47.508;8.590;2023-12-28T03:38:44;11.70;;;4.80;;
61250;SDS011;47126;47.508;8.590;2023-12-28T03:41:19;10.23;;;5.22;;
61250;SDS011;47126;47.508;8.590;2023-12-28T03:43:48;9.30;;;5.03;;
61250;SDS011;47126;47.508;8.590;2023-12-28T03:46:14;15.73;;;5.50;;
61250;SDS011;47126;47.508;8.590;2023-12-28T03:48:40;11.02;;;5.93;;
61250;SDS011;47126;47.508;8.590;2023-12-28T03:51:07;12.68;;;6.78;;
61250;SDS011;47126;47.508;8.590;2023-12-28T03:53:32;12.35;;;5.95;;
61250;SDS011;47126;47.508;8.590;2023-12-28T03:55:59;12.35;;;5.25;;
61250;SDS011;47126;47.508;8.590;2023-12-28T03:58:25;9.52;;;4.68;;
61250;SDS011;47126;47.508;8.590;2023-12-28T04:00:51;13.55;;;6.10;;
61250;SDS011;47126;47.508;8.590;2023-12-28T04:03:17;15.88;;;5.25;;
61250;SDS011;47126;47.508;8.590;2023-12-28T04:05:43;8.65;;;4.78;;
61250;SDS011;47126;47.508;8.590;2023-12-28T04:08:09;11.27;;;5.30;;
61250;SDS011;47126;47.508;8.590;2023-12-28T04:10:35;11.05;;;5.15;;
61250;SDS011;47126;47.508;8.590;2023-12-28T04:13:04;16.20;;;5.97;;
61250;SDS011;47126;47.508;8.590;2023-12-28T04:15:30;12.70;;;5.32;;
61250;SDS011;47126;47.508;8.590;2023-12-28T04:17:57;10.32;;;5.88;;
61250;SDS011;47126;47.508;8.590;2023-12-28T04:20:23;14.25;;;5.80;;
61250;SDS011;47126;47.508;8.590;2023-12-28T04:22:49;11.63;;;5.90;;
61250;SDS011;47126;47.508;8.590;2023-12-28T04:25:15;12.38;;;6.07;;
61250;SDS011;47126;47.508;8.590;2023-12-28T04:27:41;12.48;;;6.45;;
61250;SDS011;47126;47.508;8.590;2023-12-28T04:30:07;13.90;;;6.72;;
61250;SDS011;47126;47.508;8.590;2023-12-28T04:32:33;12.30;;;6.78;;
61250;SDS011;47126;47.508;8.590;2023-12-28T04:34:59;12.15;;;6.68;;
61250;SDS011;47126;47.508;8.590;2023-12-28T04:37:26;14.55;;;7.45;;
61250;SDS011;47126;47.508;8.590;2023-12-28T04:39:52;13.63;;;7.60;;
61250;SDS011;47126;47.508;8.590;2023-12-28T04:42:18;14.13;;;7.85;;
61250;SDS011;47126;47.508;8.590;2023-12-28T04:44:44;14.63;;;6.43;;
61250;SDS011;47126;47.508;8.590;2023-12-28T04:47:10;13.18;;;7.13;;
61250;SDS011;47126;47.508;8.590;2023-12-28T04:49:36;14.70;;;7.90;;
61250;SDS011;47126;47.508;8.590;2023-12-28T04:52:02;15.68;;;7.43;;
61250;SDS011;47126;47.508;8.590;2023-12-28T04:54:28;14.35;;;7.60;;
61250;SDS011;47126;47.508;8.590;2023-12-28T04:56:54;20.25;;;7.85;;
61250;SDS011;47126;47.508;8.590;2023-12-28T04:59:20;16.23;;;7.95;;
61250;SDS011;47126;47.508;8.590;2023-12-28T05:01:46;15.05;;;8.00;;
61250;SDS011;47126;47.508;8.590;2023-12-28T05:04:12;14.68;;;7.88;;
61250;SDS011;47126;47.508;8.590;2023-12-28T05:06:38;16.02;;;8.23;;
61250;SDS011;47126;47.508;8.590;2023-12-28T05:09:04;18.33;;;7.72;;
61250;SDS011;47126;47.508;8.590;2023-12-28T05:11:30;14.13;;;6.85;;
61250;SDS011;47126;47.508;8.590;2023-12-28T05:13:56;12.98;;;6.72;;
61250;SDS011;47126;47.508;8.590;2023-12-28T05:16:22;14.38;;;6.65;;
61250;SDS011;47126;47.508;8.590;2023-12-28T05:18:48;14.35;;;7.78;;
61250;SDS011;47126;47.508;8.590;2023-12-28T05:21:14;13.48;;;7.13;;
61250;SDS011;47126;47.508;8.590;2023-12-28T05:23:40;15.52;;;7.35;;
61250;SDS011;47126;47.508;8.590;2023-12-28T05:26:06;18.15;;;8.10;;
61250;SDS011;47126;47.508;8.590;2023-12-28T05:28:32;13.52;;;7.10;;
61250;SDS011;47126;47.508;8.590;2023-12-28T05:30:58;15.80;;;8.05;;
61250;SDS011;47126;47.508;8.590;2023-12-28T05:33:25;14.90;;;7.57;;
61250;SDS011;47126;47.508;8.590;2023-12-28T05:35:51;13.23;;;7.47;;
61250;SDS011;47126;47.508;8.590;2023-12-28T05:38:16;12.63;;;7.63;;
61250;SDS011;47126;47.508;8.590;2023-12-28T05:40:43;14.88;;;7.32;;
61250;SDS011;47126;47.508;8.590;2023-12-28T05:43:12;14.13;;;7.82;;
61250;SDS011;47126;47.508;8.590;2023-12-28T05:45:38;15.15;;;8.65;;
61250;SDS011;47126;47.508;8.590;2023-12-28T05:48:04;15.95;;;7.80;;
61250;SDS011;47126;47.508;8.590;2023-12-28T05:50:30;15.95;;;7.30;;
61250;SDS011;47126;47.508;8.590;2023-12-28T05:52:56;16.17;;;8.60;;
61250;SDS011;47126;47.508;8.590;2023-12-28T05:55:22;15.18;;;8.00;;
61250;SDS011;47126;47.508;8.590;2023-12-28T05:57:48;13.63;;;7.68;;
61250;SDS011;47126;47.508;8.590;2023-12-28T06:00:14;14.20;;;6.57;;
61250;SDS011;47126;47.508;8.590;2023-12-28T06:02:41;13.88;;;7.13;;
61250;SDS011;47126;47.508;8.590;2023-12-28T06:05:07;13.85;;;6.85;;
61250;SDS011;47126;47.508;8.590;2023-12-28T06:07:33;13.35;;;7.60;;
61250;SDS011;47126;47.508;8.590;2023-12-28T06:09:59;15.45;;;7.55;;
61250;SDS011;47126;47.508;8.590;2023-12-28T06:12:25;14.93;;;8.23;;
61250;SDS011;47126;47.508;8.590;2023-12-28T06:14:51;15.48;;;7.65;;
61250;SDS011;47126;47.508;8.590;2023-12-28T06:17:17;12.30;;;7.55;;
61250;SDS011;47126;47.508;8.590;2023-12-28T06:19:43;15.52;;;8.13;;
61250;SDS011;47126;47.508;8.590;2023-12-28T06:22:09;12.68;;;7.43;;
61250;SDS011;47126;47.508;8.590;2023-12-28T06:24:39;15.23;;;7.85;;
61250;SDS011;47126;47.508;8.590;2023-12-28T06:27:05;15.70;;;8.05;;
61250;SDS011;47126;47.508;8.590;2023-12-28T06:29:31;14.85;;;8.10;;
61250;SDS011;47126;47.508;8.590;2023-12-28T06:31:57;17.02;;;8.75;;
61250;SDS011;47126;47.508;8.590;2023-12-28T06:34:23;15.18;;;8.52;;
61250;SDS011;47126;47.508;8.590;2023-12-28T06:36:50;15.43;;;6.75;;
61250;SDS011;47126;47.508;8.590;2023-12-28T06:39:16;15.32;;;7.35;;
61250;SDS011;47126;47.508;8.590;2023-12-28T06:41:42;14.48;;;7.30;;
61250;SDS011;47126;47.508;8.590;2023-12-28T06:44:08;15.38;;;8.13;;
61250;SDS011;47126;47.508;8.590;2023-12-28T06:46:34;16.50;;;7.97;;
61250;SDS011;47126;47.508;8.590;2023-12-28T06:49:00;21.35;;;8.25;;
61250;SDS011;47126;47.508;8.590;2023-12-28T06:51:26;14.30;;;7.25;;
61250;SDS011;47126;47.508;8.590;2023-12-28T06:53:52;14.35;;;6.78;;
61250;SDS011;47126;47.508;8.590;2023-12-28T06:56:18;12.70;;;7.03;;
61250;SDS011;47126;47.508;8.590;2023-12-28T06:58:44;10.98;;;5.63;;
61250;SDS011;47126;47.508;8.590;2023-12-28T07:01:10;13.98;;;6.53;;
61250;SDS011;47126;47.508;8.590;2023-12-28T07:03:36;13.40;;;6.18;;
61250;SDS011;47126;47.508;8.590;2023-12-28T07:06:02;13.15;;;6.57;;
61250;SDS011;47126;47.508;8.590;2023-12-28T07:08:28;13.80;;;6.40;;
61250;SDS011;47126;47.508;8.590;2023-12-28T07:10:54;15.63;;;6.30;;
61250;SDS011;47126;47.508;8.590;2023-12-28T07:13:20;12.98;;;5.97;;
61250;SDS011;47126;47.508;8.590;2023-12-28T07:15:46;21.67;;;7.63;;
61250;SDS011;47126;47.508;8.590;2023-12-28T07:18:12;12.27;;;7.07;;
61250;SDS011;47126;47.508;8.590;2023-12-28T07:20:38;16.70;;;9.38;;
61250;SDS011;47126;47.508;8.590;2023-12-28T07:23:04;18.55;;;9.40;;
61250;SDS011;47126;47.508;8.590;2023-12-28T07:25:30;20.23;;;10.10;;
61250;SDS011;47126;47.508;8.590;2023-12-28T07:27:56;19.00;;;10.07;;
61250;SDS011;47126;47.508;8.590;2023-12-28T07:30:22;18.20;;;9.85;;
61250;SDS011;47126;47.508;8.590;2023-12-28T07:32:48;18.52;;;9.23;;
61250;SDS011;47126;47.508;8.590;2023-12-28T07:35:14;15.93;;;8.57;;
61250;SDS011;47126;47.508;8.590;2023-12-28T07:37:40;17.42;;;8.93;;
61250;SDS011;47126;47.508;8.590;2023-12-28T07:40:06;13.82;;;8.25;;
61250;SDS011;47126;47.508;8.590;2023-12-28T07:42:32;14.77;;;8.68;;
61250;SDS011;47126;47.508;8.590;2023-12-28T07:44:58;16.05;;;7.95;;
61250;SDS011;47126;47.508;8.590;2023-12-28T07:47:24;15.75;;;8.38;;
61250;SDS011;47126;47.508;8.590;2023-12-28T07:49:50;15.30;;;7.78;;
61250;SDS011;47126;47.508;8.590;2023-12-28T07:52:16;13.02;;;7.65;;
61250;SDS011;47126;47.508;8.590;2023-12-28T07:54:42;16.27;;;8.43;;
61250;SDS011;47126;47.508;8.590;2023-12-28T07:57:08;15.43;;;8.88;;
61250;SDS011;47126;47.508;8.590;2023-12-28T07:59:34;13.35;;;7.75;;
61250;SDS011;47126;47.508;8.590;2023-12-28T08:02:00;14.15;;;8.05;;
61250;SDS011;47126;47.508;8.590;2023-12-28T08:04:26;13.88;;;6.78;;
61250;SDS011;47126;47.508;8.590;2023-12-28T08:06:52;12.23;;;7.18;;
61250;SDS011;47126;47.508;8.590;2023-12-28T08:09:18;13.63;;;7.35;;
61250;SDS011;47126;47.508;8.590;2023-12-28T08:11:44;13.50;;;6.80;;
61250;SDS011;47126;47.508;8.590;2023-12-28T08:14:10;14.38;;;7.25;;
61250;SDS011;47126;47.508;8.590;2023-12-28T08:16:36;12.63;;;7.10;;
61250;SDS011;47126;47.508;8.590;2023-12-28T08:19:02;12.15;;;7.28;;
61250;SDS011;47126;47.508;8.590;2023-12-28T08:21:28;12.07;;;6.82;;
61250;SDS011;47126;47.508;8.590;2023-12-28T08:23:54;13.13;;;7.90;;
61250;SDS011;47126;47.508;8.590;2023-12-28T08:26:20;16.30;;;7.53;;
61250;SDS011;47126;47.508;8.590;2023-12-28T08:28:46;14.23;;;8.43;;
61250;SDS011;47126;47.508;8.590;2023-12-28T08:31:12;15.73;;;9.95;;
61250;SDS011;47126;47.508;8.590;2023-12-28T08:33:38;15.32;;;9.45;;
61250;SDS011;47126;47.508;8.590;2023-12-28T08:36:05;20.30;;;8.30;;
61250;SDS011;47126;47.508;8.590;2023-12-28T08:38:31;14.48;;;7.90;;
61250;SDS011;47126;47.508;8.590;2023-12-28T08:40:57;18.92;;;8.20;;
61250;SDS011;47126;47.508;8.590;2023-12-28T08:43:23;16.13;;;7.78;;
61250;SDS011;47126;47.508;8.590;2023-12-28T08:45:49;12.48;;;7.10;;
61250;SDS011;47126;47.508;8.590;2023-12-28T08:48:15;13.68;;;6.55;;
61250;SDS011;47126;47.508;8.590;2023-12-28T08:50:41;11.50;;;7.05;;
61250;SDS011;47126;47.508;8.590;2023-12-28T08:53:07;10.35;;;5.90;;
61250;SDS011;47126;47.508;8.590;2023-12-28T08:55:33;11.98;;;6.30;;
61250;SDS011;47126;47.508;8.590;2023-12-28T08:57:59;10.80;;;6.22;;
61250;SDS011;47126;47.508;8.590;2023-12-28T09:00:25;11.35;;;5.97;;
61250;SDS011;47126;47.508;8.590;2023-12-28T09:02:51;14.45;;;7.10;;
61250;SDS011;47126;47.508;8.590;2023-12-28T09:05:17;12.32;;;6.68;;
61250;SDS011;47126;47.508;8.590;2023-12-28T09:07:43;11.32;;;7.25;;
61250;SDS011;47126;47.508;8.590;2023-12-28T09:10:09;9.43;;;6.20;;
61250;SDS011;47126;47.508;8.590;2023-12-28T09:12:36;12.15;;;6.75;;
61250;SDS011;47126;47.508;8.590;2023-12-28T09:15:02;11.13;;;6.50;;
61250;SDS011;47126;47.508;8.590;2023-12-28T09:17:28;11.70;;;6.50;;
61250;SDS011;47126;47.508;8.590;2023-12-28T09:19:54;13.88;;;6.15;;
61250;SDS011;47126;47.508;8.590;2023-12-28T09:22:20;12.93;;;6.75;;
61250;SDS011;47126;47.508;8.590;2023-12-28T09:24:46;13.68;;;8.27;;
61250;SDS011;47126;47.508;8.590;2023-12-28T09:27:12;13.40;;;7.72;;
61250;SDS011;47126;47.508;8.590;2023-12-28T09:29:38;13.80;;;7.65;;
61250;SDS011;47126;47.508;8.590;2023-12-28T09:32:04;12.60;;;8.32;;
61250;SDS011;47126;47.508;8.590;2023-12-28T09:34:30;12.95;;;7.55;;
61250;SDS011;47126;47.508;8.590;2023-12-28T09:36:56;13.30;;;8.45;;
61250;SDS011;47126;47.508;8.590;2023-12-28T09:39:22;12.80;;;7.10;;
61250;SDS011;47126;47.508;8.590;2023-12-28T09:41:49;16.20;;;7.85;;
61250;SDS011;47126;47.508;8.590;2023-12-28T09:44:20;12.40;;;7.43;;
61250;SDS011;47126;47.508;8.590;2023-12-28T09:46:47;13.10;;;7.70;;
61250;SDS011;47126;47.508;8.590;2023-12-28T09:49:13;11.25;;;7.20;;
61250;SDS011;47126;47.508;8.590;2023-12-28T09:51:39;10.85;;;6.75;;
61250;SDS011;47126;47.508;8.590;2023-12-28T09:54:05;12.85;;;7.43;;
61250;SDS011;47126;47.508;8.590;2023-12-28T09:56:32;12.38;;;7.75;;
61250;SDS011;47126;47.508;8.590;2023-12-28T09:58:58;12.32;;;7.82;;
61250;SDS011;47126;47.508;8.590;2023-12-28T10:01:24;14.40;;;7.85;;
61250;SDS011;47126;47.508;8.590;2023-12-28T10:03:50;13.07;;;8.50;;
61250;SDS011;47126;47.508;8.590;2023-12-28T10:06:19;12.63;;;8.05;;
61250;SDS011;47126;47.508;8.590;2023-12-28T10:08:46;21.08;;;7.32;;
61250;SDS011;47126;47.508;8.590;2023-12-28T10:11:14;12.63;;;7.93;;
61250;SDS011;47126;47.508;8.590;2023-12-28T10:13:40;11.55;;;7.20;;
61250;SDS011;47126;47.508;8.590;2023-12-28T10:16:08;11.50;;;7.57;;
61250;SDS011;47126;47.508;8.590;2023-12-28T10:18:35;11.05;;;7.13;;
61250;SDS011;47126;47.508;8.590;2023-12-28T10:21:01;12.75;;;7.97;;
61250;SDS011;47126;47.508;8.590;2023-12-28T10:23:27;17.08;;;8.00;;
61250;SDS011;47126;47.508;8.590;2023-12-28T10:25:55;13.35;;;7.82;;
61250;SDS011;47126;47.508;8.590;2023-12-28T10:28:21;12.10;;;7.40;;
61250;SDS011;47126;47.508;8.590;2023-12-28T10:30:47;16.27;;;8.07;;
61250;SDS011;47126;47.508;8.590;2023-12-28T10:33:14;13.98;;;8.10;;
61250;SDS011;47126;47.508;8.590;2023-12-28T10:35:40;14.60;;;7.97;;
61250;SDS011;47126;47.508;8.590;2023-12-28T10:38:06;14.65;;;8.30;;
61250;SDS011;47126;47.508;8.590;2023-12-28T10:40:33;13.80;;;8.00;;
61250;SDS011;47126;47.508;8.590;2023-12-28T10:43:02;12.30;;;7.70;;
61250;SDS011;47126;47.508;8.590;2023-12-28T10:45:29;11.90;;;7.57;;
61250;SDS011;47126;47.508;8.590;2023-12-28T10:48:06;13.90;;;7.60;;
61250;SDS011;47126;47.508;8.590;2023-12-28T10:50:40;11.07;;;6.40;;
61250;SDS011;47126;47.508;8.590;2023-12-28T10:55:53;12.30;;;6.00;;
61250;SDS011;47126;47.508;8.590;2023-12-28T11:00:56;9.63;;;6.10;;
61250;SDS011;47126;47.508;8.590;2023-12-28T11:03:27;12.55;;;5.70;;
61250;SDS011;47126;47.508;8.590;2023-12-28T11:05:54;11.13;;;6.70;;
61250;SDS011;47126;47.508;8.590;2023-12-28T11:08:21;13.95;;;6.30;;
61250;SDS011;47126;47.508;8.590;2023-12-28T11:10:47;11.23;;;6.30;;
61250;SDS011;47126;47.508;8.590;2023-12-28T11:13:13;10.25;;;5.70;;
61250;SDS011;47126;47.508;8.590;2023-12-28T11:15:40;12.82;;;5.50;;
61250;SDS011;47126;47.508;8.590;2023-12-28T11:18:06;10.65;;;5.65;;
61250;SDS011;47126;47.508;8.590;2023-12-28T11:20:33;13.15;;;6.20;;
61250;SDS011;47126;47.508;8.590;2023-12-28T11:22:59;11.25;;;5.78;;
61250;SDS011;47126;47.508;8.590;2023-12-28T11:25:25;11.00;;;5.72;;
61250;SDS011;47126;47.508;8.590;2023-12-28T11:27:56;11.68;;;5.82;;
61250;SDS011;47126;47.508;8.590;2023-12-28T11:30:25;10.35;;;6.25;;
61250;SDS011;47126;47.508;8.590;2023-12-28T11:32:51;9.70;;;5.70;;
61250;SDS011;47126;47.508;8.590;2023-12-28T11:35:21;13.38;;;6.10;;
61250;SDS011;47126;47.508;8.590;2023-12-28T11:37:48;9.40;;;5.60;;
61250;SDS011;47126;47.508;8.590;2023-12-28T11:40:17;9.82;;;5.75;;
61250;SDS011;47126;47.508;8.590;2023-12-28T11:42:51;12.07;;;6.25;;
61250;SDS011;47126;47.508;8.590;2023-12-28T11:45:18;11.57;;;6.20;;
61250;SDS011;47126;47.508;8.590;2023-12-28T11:47:44;12.20;;;5.43;;
61250;SDS011;47126;47.508;8.590;2023-12-28T11:50:10;12.82;;;5.72;;
61250;SDS011;47126;47.508;8.590;2023-12-28T11:52:37;14.88;;;6.65;;
61250;SDS011;47126;47.508;8.590;2023-12-28T11:55:03;11.23;;;6.10;;
61250;SDS011;47126;47.508;8.590;2023-12-28T11:57:29;11.60;;;6.32;;
61250;SDS011;47126;47.508;8.590;2023-12-28T12:00:00;16.33;;;11.23;;
61250;SDS011;47126;47.508;8.590;2023-12-28T12:02:27;16.83;;;10.32;;
61250;SDS011;47126;47.508;8.590;2023-12-28T12:04:53;13.23;;;8.32;;
61250;SDS011;47126;47.508;8.590;2023-12-28T12:07:20;15.57;;;12.52;;
61250;SDS011;47126;47.508;8.590;2023-12-28T12:09:46;12.75;;;8.35;;
61250;SDS011;47126;47.508;8.590;2023-12-28T12:12:12;11.90;;;6.00;;
61250;SDS011;47126;47.508;8.590;2023-12-28T12:14:38;13.57;;;9.93;;
61250;SDS011;47126;47.508;8.590;2023-12-28T12:17:04;11.88;;;5.95;;
61250;SDS011;47126;47.508;8.590;2023-12-28T12:19:30;13.63;;;7.00;;
61250;SDS011;47126;47.508;8.590;2023-12-28T12:21:57;14.07;;;8.85;;
61250;SDS011;47126;47.508;8.590;2023-12-28T12:24:23;12.10;;;7.18;;
61250;SDS011;47126;47.508;8.590;2023-12-28T12:26:49;11.68;;;6.57;;
61250;SDS011;47126;47.508;8.590;2023-12-28T12:29:15;12.55;;;6.55;;
61250;SDS011;47126;47.508;8.590;2023-12-28T12:31:42;13.77;;;6.40;;
61250;SDS011;47126;47.508;8.590;2023-12-28T12:34:09;11.93;;;6.30;;
61250;SDS011;47126;47.508;8.590;2023-12-28T12:36:35;11.40;;;6.53;;
61250;SDS011;47126;47.508;8.590;2023-12-28T12:39:01;11.10;;;5.47;;
61250;SDS011;47126;47.508;8.590;2023-12-28T12:41:31;10.05;;;5.93;;
61250;SDS011;47126;47.508;8.590;2023-12-28T12:44:00;11.35;;;6.22;;
61250;SDS011;47126;47.508;8.590;2023-12-28T12:46:26;13.85;;;6.35;;
61250;SDS011;47126;47.508;8.590;2023-12-28T12:49:00;11.60;;;5.90;;
61250;SDS011;47126;47.508;8.590;2023-12-28T12:51:27;12.07;;;6.50;;
61250;SDS011;47126;47.508;8.590;2023-12-28T12:53:57;11.13;;;6.03;;
61250;SDS011;47126;47.508;8.590;2023-12-28T12:56:24;12.35;;;5.97;;
61250;SDS011;47126;47.508;8.590;2023-12-28T12:58:50;12.25;;;6.63;;
61250;SDS011;47126;47.508;8.590;2023-12-28T13:01:16;12.40;;;6.70;;
61250;SDS011;47126;47.508;8.590;2023-12-28T13:03:43;11.93;;;6.30;;
61250;SDS011;47126;47.508;8.590;2023-12-28T13:06:09;11.93;;;6.53;;
61250;SDS011;47126;47.508;8.590;2023-12-28T13:08:35;12.43;;;6.50;;
61250;SDS011;47126;47.508;8.590;2023-12-28T13:11:01;12.38;;;6.45;;
61250;SDS011;47126;47.508;8.590;2023-12-28T13:13:27;12.73;;;5.88;;
61250;SDS011;47126;47.508;8.590;2023-12-28T13:15:53;11.10;;;6.22;;
61250;SDS011;47126;47.508;8.590;2023-12-28T13:18:19;12.07;;;6.60;;
61250;SDS011;47126;47.508;8.590;2023-12-28T13:20:45;14.35;;;7.13;;
61250;SDS011;47126;47.508;8.590;2023-12-28T13:23:11;13.25;;;7.95;;
61250;SDS011;47126;47.508;8.590;2023-12-28T13:25:37;11.35;;;6.75;;
61250;SDS011;47126;47.508;8.590;2023-12-28T13:28:04;13.90;;;8.75;;
61250;SDS011;47126;47.508;8.590;2023-12-28T13:30:30;11.88;;;7.35;;
61250;SDS011;47126;47.508;8.590;2023-12-28T13:32:56;14.43;;;10.52;;
61250;SDS011;47126;47.508;8.590;2023-12-28T13:35:23;12.70;;;6.97;;
61250;SDS011;47126;47.508;8.590;2023-12-28T13:37:49;12.30;;;7.72;;
61250;SDS011;47126;47.508;8.590;2023-12-28T13:40:15;13.25;;;7.45;;
61250;SDS011;47126;47.508;8.590;2023-12-28T13:42:41;11.25;;;6.85;;
61250;SDS011;47126;47.508;8.590;2023-12-28T13:45:07;12.95;;;7.18;;
61250;SDS011;47126;47.508;8.590;2023-12-28T13:47:33;14.65;;;7.53;;
61250;SDS011;47126;47.508;8.590;2023-12-28T13:49:59;12.18;;;6.82;;
61250;SDS011;47126;47.508;8.590;2023-12-28T13:52:25;10.38;;;6.43;;
61250;SDS011;47126;47.508;8.590;2023-12-28T13:54:52;11.63;;;6.05;;
61250;SDS011;47126;47.508;8.590;2023-12-28T13:57:18;10.50;;;6.32;;
61250;SDS011;47126;47.508;8.590;2023-12-28T13:59:44;12.13;;;6.32;;
61250;SDS011;47126;47.508;8.590;2023-12-28T14:02:10;11.07;;;6.25;;
61250;SDS011;47126;47.508;8.590;2023-12-28T14:04:36;12.63;;;6.47;;
61250;SDS011;47126;47.508;8.590;2023-12-28T14:07:02;11.00;;;6.07;;
61250;SDS011;47126;47.508;8.590;2023-12-28T14:09:28;10.50;;;5.88;;
61250;SDS011;47126;47.508;8.590;2023-12-28T14:11:55;9.45;;;5.90;;
61250;SDS011;47126;47.508;8.590;2023-12-28T14:14:21;9.63;;;5.40;;
61250;SDS011;47126;47.508;8.590;2023-12-28T14:16:47;9.82;;;5.15;;
61250;SDS011;47126;47.508;8.590;2023-12-28T14:19:13;10.77;;;5.63;;
61250;SDS011;47126;47.508;8.590;2023-12-28T14:21:39;9.60;;;4.68;;
61250;SDS011;47126;47.508;8.590;2023-12-28T14:24:05;11.35;;;5.10;;
61250;SDS011;47126;47.508;8.590;2023-12-28T14:26:32;8.75;;;5.55;;
61250;SDS011;47126;47.508;8.590;2023-12-28T14:28:59;11.07;;;5.43;;
61250;SDS011;47126;47.508;8.590;2023-12-28T14:31:28;9.27;;;5.57;;
61250;SDS011;47126;47.508;8.590;2023-12-28T14:33:55;9.65;;;5.03;;
61250;SDS011;47126;47.508;8.590;2023-12-28T14:36:27;13.23;;;5.28;;